sensor_id;sensor_type;location;lat;lon;timestamp;P1;durP1;ratioP1;P2;durP2;ratioP2
9372;SDS011;10838;52.350;9.790;2023-12-20T00:01:32;8.23;;;7.20;;
9372;SDS011;10838;52.350;9.790;2023-12-20T00:03:59;14.43;;;7.27;;
9372;SDS011;10838;52.350;9.790;2023-12-20T00:06:25;9.93;;;6.60;;
9372;SDS011;10838;52.350;9.790;2023-12-20T00:08:52;10.07;;;6.67;;
9372;SDS011;10838;52.350;9.790;2023-12-20T00:11:20;6.77;;;6.17;;
9372;SDS011;10838;52.350;9.790;2023-12-20T00:13:46;10.87;;;7.33;;
9372;SDS011;10838;52.350;9.790;2023-12-20T00:16:13;8.83;;;7.10;;
9372;SDS011;10838;52.350;9.790;2023-12-20T00:18:39;7.73;;;7.00;;
9372;SDS011;10838;52.350;9.790;2023-12-20T00:21:06;10.70;;;8.20;;
9372;SDS011;10838;52.350;9.790;2023-12-20T00:23:33;8.80;;;7.97;;
9372;SDS011;10838;52.350;9.790;2023-12-20T00:25:59;10.23;;;8.50;;
9372;SDS011;10838;52.350;9.790;2023-12-20T00:28:27;9.10;;;8.20;;
9372;SDS011;10838;52.350;9.790;2023-12-20T00:30:54;9.33;;;8.37;;
9372;SDS011;10838;52.350;9.790;2023-12-20T00:33:20;11.63;;;6.57;;
9372;SDS011;10838;52.350;9.790;2023-12-20T00:35:47;10.37;;;7.00;;
9372;SDS011;10838;52.350;9.790;2023-12-20T00:38:14;10.10;;;5.60;;
9372;SDS011;10838;52.350;9.790;2023-12-20T00:40:40;9.57;;;5.50;;
9372;SDS011;10838;52.350;9.790;2023-12-20T00:43:07;7.57;;;4.60;;
9372;SDS011;10838;52.350;9.790;2023-12-20T00:45:35;8.27;;;5.50;;
9372;SDS011;10838;52.350;9.790;2023-12-20T00:48:01;10.27;;;5.13;;
9372;SDS011;10838;52.350;9.790;2023-12-20T00:50:28;10.87;;;5.70;;
9372;SDS011;10838;52.350;9.790;2023-12-20T00:52:55;12.60;;;5.67;;
9372;SDS011;10838;52.350;9.790;2023-12-20T00:55:21;11.90;;;5.20;;
9372;SDS011;10838;52.350;9.790;2023-12-20T00:57:48;11.87;;;4.43;;
9372;SDS011;10838;52.350;9.790;2023-12-20T01:00:15;16.13;;;4.97;;
9372;SDS011;10838;52.350;9.790;2023-12-20T01:02:43;8.97;;;4.13;;
9372;SDS011;10838;52.350;9.790;2023-12-20T01:05:11;10.60;;;3.87;;
9372;SDS011;10838;52.350;9.790;2023-12-20T01:07:38;5.90;;;3.50;;
9372;SDS011;10838;52.350;9.790;2023-12-20T01:10:05;11.13;;;3.70;;
9372;SDS011;10838;52.350;9.790;2023-12-20T01:12:31;13.53;;;3.30;;
9372;SDS011;10838;52.350;9.790;2023-12-20T01:14:58;10.73;;;3.10;;
9372;SDS011;10838;52.350;9.790;2023-12-20T01:17:25;8.87;;;2.70;;
9372;SDS011;10838;52.350;9.790;2023-12-20T01:19:52;9.30;;;2.73;;
9372;SDS011;10838;52.350;9.790;2023-12-20T01:22:19;7.37;;;2.80;;
9372;SDS011;10838;52.350;9.790;2023-12-20T01:24:46;9.30;;;3.03;;
9372;SDS011;10838;52.350;9.790;2023-12-20T01:27:12;10.03;;;3.33;;
9372;SDS011;10838;52.350;9.790;2023-12-20T01:29:39;6.43;;;2.97;;
9372;SDS011;10838;52.350;9.790;2023-12-20T01:32:05;13.83;;;3.53;;
9372;SDS011;10838;52.350;9.790;2023-12-20T01:34:32;10.37;;;3.43;;
9372;SDS011;10838;52.350;9.790;2023-12-20T01:37:00;16.30;;;3.20;;
9372;SDS011;10838;52.350;9.790;2023-12-20T01:39:27;9.67;;;3.23;;
9372;SDS011;10838;52.350;9.790;2023-12-20T01:41:54;6.27;;;2.80;;
9372;SDS011;10838;52.350;9.790;2023-12-20T01:44:20;10.83;;;2.90;;
9372;SDS011;10838;52.350;9.790;2023-12-20T01:46:47;13.37;;;3.90;;
9372;SDS011;10838;52.350;9.790;2023-12-20T01:49:14;10.87;;;2.97;;
9372;SDS011;10838;52.350;9.790;2023-12-20T01:51:41;10.53;;;2.83;;
9372;SDS011;10838;52.350;9.790;2023-12-20T01:54:09;12.93;;;2.63;;
9372;SDS011;10838;52.350;9.790;2023-12-20T01:56:36;8.13;;;2.43;;
9372;SDS011;10838;52.350;9.790;2023-12-20T01:59:03;4.97;;;2.23;;
9372;SDS011;10838;52.350;9.790;2023-12-20T02:01:30;9.10;;;2.70;;
9372;SDS011;10838;52.350;9.790;2023-12-20T02:03:57;11.43;;;2.40;;
9372;SDS011;10838;52.350;9.790;2023-12-20T02:06:25;15.30;;;2.40;;
9372;SDS011;10838;52.350;9.790;2023-12-20T02:08:56;11.03;;;2.40;;
9372;SDS011;10838;52.350;9.790;2023-12-20T02:11:25;7.93;;;1.90;;
9372;SDS011;10838;52.350;9.790;2023-12-20T02:13:52;11.20;;;2.50;;
9372;SDS011;10838;52.350;9.790;2023-12-20T02:16:19;14.50;;;2.30;;
9372;SDS011;10838;52.350;9.790;2023-12-20T02:18:46;10.90;;;2.57;;
9372;SDS011;10838;52.350;9.790;2023-12-20T02:21:13;10.00;;;2.60;;
9372;SDS011;10838;52.350;9.790;2023-12-20T02:23:42;14.23;;;2.77;;
9372;SDS011;10838;52.350;9.790;2023-12-20T02:26:08;10.30;;;2.80;;
9372;SDS011;10838;52.350;9.790;2023-12-20T02:28:35;10.30;;;2.10;;
9372;SDS011;10838;52.350;9.790;2023-12-20T02:31:02;14.27;;;3.10;;
9372;SDS011;10838;52.350;9.790;2023-12-20T02:33:29;9.40;;;2.10;;
9372;SDS011;10838;52.350;9.790;2023-12-20T02:35:55;12.90;;;2.43;;
9372;SDS011;10838;52.350;9.790;2023-12-20T02:38:22;10.17;;;2.20;;
9372;SDS011;10838;52.350;9.790;2023-12-20T02:40:50;10.93;;;2.50;;
9372;SDS011;10838;52.350;9.790;2023-12-20T02:43:16;10.03;;;2.60;;
9372;SDS011;10838;52.350;9.790;2023-12-20T02:45:43;9.23;;;2.23;;
9372;SDS011;10838;52.350;9.790;2023-12-20T02:48:10;10.40;;;2.40;;
9372;SDS011;10838;52.350;9.790;2023-12-20T02:50:36;6.90;;;2.40;;
9372;SDS011;10838;52.350;9.790;2023-12-20T02:53:03;9.80;;;2.50;;
9372;SDS011;10838;52.350;9.790;2023-12-20T02:55:29;10.30;;;2.60;;
9372;SDS011;10838;52.350;9.790;2023-12-20T02:57:57;13.17;;;2.87;;
9372;SDS011;10838;52.350;9.790;2023-12-20T03:00:24;10.33;;;2.63;;
9372;SDS011;10838;52.350;9.790;2023-12-20T03:02:50;10.10;;;2.33;;
9372;SDS011;10838;52.350;9.790;2023-12-20T03:05:17;10.43;;;2.50;;
9372;SDS011;10838;52.350;9.790;2023-12-20T03:07:43;6.23;;;2.00;;
9372;SDS011;10838;52.350;9.790;2023-12-20T03:10:10;11.93;;;2.67;;
9372;SDS011;10838;52.350;9.790;2023-12-20T03:12:37;11.77;;;2.27;;
9372;SDS011;10838;52.350;9.790;2023-12-20T03:15:04;4.73;;;1.87;;
9372;SDS011;10838;52.350;9.790;2023-12-20T03:17:31;14.03;;;2.60;;
9372;SDS011;10838;52.350;9.790;2023-12-20T03:19:58;8.03;;;1.90;;
9372;SDS011;10838;52.350;9.790;2023-12-20T03:22:24;10.53;;;2.00;;
9372;SDS011;10838;52.350;9.790;2023-12-20T03:24:51;8.20;;;1.90;;
9372;SDS011;10838;52.350;9.790;2023-12-20T03:27:17;9.40;;;2.27;;
9372;SDS011;10838;52.350;9.790;2023-12-20T03:29:44;7.63;;;2.13;;
9372;SDS011;10838;52.350;9.790;2023-12-20T03:32:12;13.83;;;1.93;;
9372;SDS011;10838;52.350;9.790;2023-12-20T03:34:38;10.23;;;2.20;;
9372;SDS011;10838;52.350;9.790;2023-12-20T03:37:05;6.57;;;1.50;;
9372;SDS011;10838;52.350;9.790;2023-12-20T03:39:31;7.47;;;1.30;;
9372;SDS011;10838;52.350;9.790;2023-12-20T03:41:58;7.70;;;1.70;;
9372;SDS011;10838;52.350;9.790;2023-12-20T03:44:24;11.37;;;1.90;;
9372;SDS011;10838;52.350;9.790;2023-12-20T03:46:51;9.83;;;1.70;;
9372;SDS011;10838;52.350;9.790;2023-12-20T03:49:19;8.97;;;1.47;;
9372;SDS011;10838;52.350;9.790;2023-12-20T03:51:45;8.40;;;2.13;;
9372;SDS011;10838;52.350;9.790;2023-12-20T03:54:12;12.80;;;1.77;;
9372;SDS011;10838;52.350;9.790;2023-12-20T03:56:38;6.33;;;1.60;;
9372;SDS011;10838;52.350;9.790;2023-12-20T03:59:05;3.57;;;1.50;;
9372;SDS011;10838;52.350;9.790;2023-12-20T04:01:31;15.80;;;2.20;;
9372;SDS011;10838;52.350;9.790;2023-12-20T04:03:58;10.83;;;1.60;;
9372;SDS011;10838;52.350;9.790;2023-12-20T04:06:26;12.83;;;1.60;;
9372;SDS011;10838;52.350;9.790;2023-12-20T04:08:53;4.83;;;1.37;;
9372;SDS011;10838;52.350;9.790;2023-12-20T04:11:19;10.67;;;2.23;;
9372;SDS011;10838;52.350;9.790;2023-12-20T04:13:46;10.70;;;1.80;;
9372;SDS011;10838;52.350;9.790;2023-12-20T04:16:12;8.73;;;1.80;;
9372;SDS011;10838;52.350;9.790;2023-12-20T04:18:39;7.00;;;1.80;;
9372;SDS011;10838;52.350;9.790;2023-12-20T04:21:05;8.67;;;2.30;;
9372;SDS011;10838;52.350;9.790;2023-12-20T04:23:33;9.90;;;2.30;;
9372;SDS011;10838;52.350;9.790;2023-12-20T04:26:00;9.60;;;2.13;;
9372;SDS011;10838;52.350;9.790;2023-12-20T04:28:26;14.20;;;2.10;;
9372;SDS011;10838;52.350;9.790;2023-12-20T04:30:55;12.80;;;2.10;;
9372;SDS011;10838;52.350;9.790;2023-12-20T04:33:21;7.33;;;2.03;;
9372;SDS011;10838;52.350;9.790;2023-12-20T04:35:48;12.73;;;1.77;;
9372;SDS011;10838;52.350;9.790;2023-12-20T04:38:15;12.07;;;2.37;;
9372;SDS011;10838;52.350;9.790;2023-12-20T04:40:43;10.60;;;2.37;;
9372;SDS011;10838;52.350;9.790;2023-12-20T04:43:10;9.37;;;2.30;;
9372;SDS011;10838;52.350;9.790;2023-12-20T04:45:37;9.70;;;2.57;;
9372;SDS011;10838;52.350;9.790;2023-12-20T04:48:03;10.80;;;2.20;;
9372;SDS011;10838;52.350;9.790;2023-12-20T04:50:30;10.63;;;2.47;;
9372;SDS011;10838;52.350;9.790;2023-12-20T04:52:58;11.33;;;2.37;;
9372;SDS011;10838;52.350;9.790;2023-12-20T04:55:24;12.47;;;2.10;;
9372;SDS011;10838;52.350;9.790;2023-12-20T04:57:51;13.00;;;2.40;;
9372;SDS011;10838;52.350;9.790;2023-12-20T05:00:18;14.80;;;2.20;;
9372;SDS011;10838;52.350;9.790;2023-12-20T05:02:44;10.23;;;2.13;;
9372;SDS011;10838;52.350;9.790;2023-12-20T05:05:11;15.47;;;2.40;;
9372;SDS011;10838;52.350;9.790;2023-12-20T05:07:40;12.67;;;2.33;;
9372;SDS011;10838;52.350;9.790;2023-12-20T05:10:07;11.87;;;2.40;;
9372;SDS011;10838;52.350;9.790;2023-12-20T05:12:34;8.23;;;2.47;;
9372;SDS011;10838;52.350;9.790;2023-12-20T05:15:02;11.57;;;2.67;;
9372;SDS011;10838;52.350;9.790;2023-12-20T05:17:29;11.20;;;2.57;;
9372;SDS011;10838;52.350;9.790;2023-12-20T05:19:55;11.90;;;2.30;;
9372;SDS011;10838;52.350;9.790;2023-12-20T05:22:22;13.27;;;2.60;;
9372;SDS011;10838;52.350;9.790;2023-12-20T05:24:49;17.27;;;2.50;;
9372;SDS011;10838;52.350;9.790;2023-12-20T05:27:15;14.50;;;2.77;;
9372;SDS011;10838;52.350;9.790;2023-12-20T05:29:42;8.93;;;2.43;;
9372;SDS011;10838;52.350;9.790;2023-12-20T05:32:09;9.50;;;2.47;;
9372;SDS011;10838;52.350;9.790;2023-12-20T05:34:36;15.73;;;2.63;;
9372;SDS011;10838;52.350;9.790;2023-12-20T05:37:03;11.43;;;2.80;;
9372;SDS011;10838;52.350;9.790;2023-12-20T05:39:29;11.87;;;2.83;;
9372;SDS011;10838;52.350;9.790;2023-12-20T05:41:56;13.87;;;2.93;;
9372;SDS011;10838;52.350;9.790;2023-12-20T05:44:23;16.10;;;2.87;;
9372;SDS011;10838;52.350;9.790;2023-12-20T05:46:49;14.00;;;2.70;;
9372;SDS011;10838;52.350;9.790;2023-12-20T05:49:17;14.80;;;2.80;;
9372;SDS011;10838;52.350;9.790;2023-12-20T05:51:44;13.70;;;2.90;;
9372;SDS011;10838;52.350;9.790;2023-12-20T05:54:10;15.00;;;2.70;;
9372;SDS011;10838;52.350;9.790;2023-12-20T05:56:37;9.20;;;2.57;;
9372;SDS011;10838;52.350;9.790;2023-12-20T05:59:04;8.20;;;2.40;;
9372;SDS011;10838;52.350;9.790;2023-12-20T06:01:30;13.83;;;2.33;;
9372;SDS011;10838;52.350;9.790;2023-12-20T06:03:57;8.90;;;2.50;;
9372;SDS011;10838;52.350;9.790;2023-12-20T06:06:24;10.67;;;2.47;;
9372;SDS011;10838;52.350;9.790;2023-12-20T06:08:51;13.50;;;2.90;;
9372;SDS011;10838;52.350;9.790;2023-12-20T06:11:18;8.40;;;3.20;;
9372;SDS011;10838;52.350;9.790;2023-12-20T06:13:44;12.77;;;2.90;;
9372;SDS011;10838;52.350;9.790;2023-12-20T06:16:11;8.50;;;2.67;;
9372;SDS011;10838;52.350;9.790;2023-12-20T06:18:37;11.97;;;2.30;;
9372;SDS011;10838;52.350;9.790;2023-12-20T06:21:04;12.30;;;2.70;;
9372;SDS011;10838;52.350;9.790;2023-12-20T06:23:33;11.73;;;2.67;;
9372;SDS011;10838;52.350;9.790;2023-12-20T06:26:00;12.40;;;2.90;;
9372;SDS011;10838;52.350;9.790;2023-12-20T06:28:26;11.27;;;2.87;;
9372;SDS011;10838;52.350;9.790;2023-12-20T06:30:53;12.50;;;2.90;;
9372;SDS011;10838;52.350;9.790;2023-12-20T06:33:20;16.67;;;3.07;;
9372;SDS011;10838;52.350;9.790;2023-12-20T06:35:47;18.93;;;3.13;;
9372;SDS011;10838;52.350;9.790;2023-12-20T06:38:14;14.93;;;3.10;;
9372;SDS011;10838;52.350;9.790;2023-12-20T06:40:42;12.03;;;2.90;;
9372;SDS011;10838;52.350;9.790;2023-12-20T06:43:08;11.20;;;2.83;;
9372;SDS011;10838;52.350;9.790;2023-12-20T06:45:35;16.47;;;3.63;;
9372;SDS011;10838;52.350;9.790;2023-12-20T06:48:02;17.60;;;4.23;;
9372;SDS011;10838;52.350;9.790;2023-12-20T06:50:28;15.07;;;3.27;;
9372;SDS011;10838;52.350;9.790;2023-12-20T06:52:55;9.17;;;3.20;;
9372;SDS011;10838;52.350;9.790;2023-12-20T06:55:22;9.37;;;2.90;;
9372;SDS011;10838;52.350;9.790;2023-12-20T06:57:49;11.57;;;2.47;;
9372;SDS011;10838;52.350;9.790;2023-12-20T07:00:16;12.53;;;2.77;;
9372;SDS011;10838;52.350;9.790;2023-12-20T07:02:44;11.63;;;2.63;;
9372;SDS011;10838;52.350;9.790;2023-12-20T07:05:12;11.83;;;2.70;;
9372;SDS011;10838;52.350;9.790;2023-12-20T07:07:41;11.60;;;2.87;;
9372;SDS011;10838;52.350;9.790;2023-12-20T07:10:08;13.17;;;3.70;;
9372;SDS011;10838;52.350;9.790;2023-12-20T07:12:34;12.80;;;3.30;;
9372;SDS011;10838;52.350;9.790;2023-12-20T07:15:03;10.43;;;2.70;;
9372;SDS011;10838;52.350;9.790;2023-12-20T07:17:31;12.07;;;2.90;;
9372;SDS011;10838;52.350;9.790;2023-12-20T07:19:59;13.03;;;3.37;;
9372;SDS011;10838;52.350;9.790;2023-12-20T07:22:28;11.43;;;3.50;;
9372;SDS011;10838;52.350;9.790;2023-12-20T07:24:55;13.03;;;3.00;;
9372;SDS011;10838;52.350;9.790;2023-12-20T07:27:21;10.67;;;2.60;;
9372;SDS011;10838;52.350;9.790;2023-12-20T07:29:48;22.67;;;3.87;;
9372;SDS011;10838;52.350;9.790;2023-12-20T07:32:16;13.43;;;2.70;;
9372;SDS011;10838;52.350;9.790;2023-12-20T07:34:42;14.87;;;3.27;;
9372;SDS011;10838;52.350;9.790;2023-12-20T07:37:09;14.00;;;3.10;;
9372;SDS011;10838;52.350;9.790;2023-12-20T07:39:37;15.83;;;3.00;;
9372;SDS011;10838;52.350;9.790;2023-12-20T07:42:05;14.63;;;4.00;;
9372;SDS011;10838;52.350;9.790;2023-12-20T07:44:31;20.80;;;3.87;;
9372;SDS011;10838;52.350;9.790;2023-12-20T07:46:58;17.10;;;4.73;;
9372;SDS011;10838;52.350;9.790;2023-12-20T07:49:27;25.40;;;4.40;;
9372;SDS011;10838;52.350;9.790;2023-12-20T07:51:54;11.83;;;3.73;;
9372;SDS011;10838;52.350;9.790;2023-12-20T07:54:20;15.57;;;3.83;;
9372;SDS011;10838;52.350;9.790;2023-12-20T07:56:47;16.27;;;2.93;;
9372;SDS011;10838;52.350;9.790;2023-12-20T07:59:15;11.33;;;3.13;;
9372;SDS011;10838;52.350;9.790;2023-12-20T08:01:41;10.53;;;3.00;;
9372;SDS011;10838;52.350;9.790;2023-12-20T08:04:08;12.97;;;3.20;;
9372;SDS011;10838;52.350;9.790;2023-12-20T08:06:36;13.47;;;3.03;;
9372;SDS011;10838;52.350;9.790;2023-12-20T08:09:03;15.80;;;3.50;;
9372;SDS011;10838;52.350;9.790;2023-12-20T08:11:30;15.53;;;3.77;;
9372;SDS011;10838;52.350;9.790;2023-12-20T08:13:57;17.23;;;4.47;;
9372;SDS011;10838;52.350;9.790;2023-12-20T08:16:23;15.23;;;3.80;;
9372;SDS011;10838;52.350;9.790;2023-12-20T08:18:51;19.80;;;3.90;;
9372;SDS011;10838;52.350;9.790;2023-12-20T08:21:17;12.53;;;3.67;;
9372;SDS011;10838;52.350;9.790;2023-12-20T08:23:46;14.90;;;3.87;;
9372;SDS011;10838;52.350;9.790;2023-12-20T08:26:14;11.97;;;4.00;;
9372;SDS011;10838;52.350;9.790;2023-12-20T08:28:46;15.07;;;3.90;;
9372;SDS011;10838;52.350;9.790;2023-12-20T08:31:13;16.03;;;3.80;;
9372;SDS011;10838;52.350;9.790;2023-12-20T08:33:40;18.83;;;4.10;;
9372;SDS011;10838;52.350;9.790;2023-12-20T08:36:07;14.80;;;4.27;;
9372;SDS011;10838;52.350;9.790;2023-12-20T08:38:34;15.77;;;4.00;;
9372;SDS011;10838;52.350;9.790;2023-12-20T08:41:02;20.73;;;3.70;;
9372;SDS011;10838;52.350;9.790;2023-12-20T08:43:30;14.13;;;3.57;;
9372;SDS011;10838;52.350;9.790;2023-12-20T08:45:57;13.77;;;3.50;;
9372;SDS011;10838;52.350;9.790;2023-12-20T08:48:23;15.13;;;3.33;;
9372;SDS011;10838;52.350;9.790;2023-12-20T08:50:50;18.60;;;3.93;;
9372;SDS011;10838;52.350;9.790;2023-12-20T08:53:17;15.07;;;4.10;;
9372;SDS011;10838;52.350;9.790;2023-12-20T08:55:43;11.93;;;4.53;;
9372;SDS011;10838;52.350;9.790;2023-12-20T08:58:12;15.63;;;3.70;;
9372;SDS011;10838;52.350;9.790;2023-12-20T09:00:38;15.00;;;4.10;;
9372;SDS011;10838;52.350;9.790;2023-12-20T09:03:05;8.13;;;3.30;;
9372;SDS011;10838;52.350;9.790;2023-12-20T09:05:32;14.03;;;3.60;;
9372;SDS011;10838;52.350;9.790;2023-12-20T09:07:58;10.63;;;3.33;;
9372;SDS011;10838;52.350;9.790;2023-12-20T09:10:25;14.70;;;3.73;;
9372;SDS011;10838;52.350;9.790;2023-12-20T09:12:51;15.77;;;3.20;;
9372;SDS011;10838;52.350;9.790;2023-12-20T09:15:23;9.77;;;3.10;;
9372;SDS011;10838;52.350;9.790;2023-12-20T09:17:50;15.00;;;3.70;;
9372;SDS011;10838;52.350;9.790;2023-12-20T09:20:17;7.03;;;3.27;;
9372;SDS011;10838;52.350;9.790;2023-12-20T09:22:43;14.53;;;3.57;;
9372;SDS011;10838;52.350;9.790;2023-12-20T09:25:10;12.53;;;3.33;;
9372;SDS011;10838;52.350;9.790;2023-12-20T09:27:37;9.93;;;3.03;;
9372;SDS011;10838;52.350;9.790;2023-12-20T09:30:04;9.87;;;3.33;;
9372;SDS011;10838;52.350;9.790;2023-12-20T09:32:33;12.43;;;3.23;;
9372;SDS011;10838;52.350;9.790;2023-12-20T09:34:59;16.17;;;3.30;;
9372;SDS011;10838;52.350;9.790;2023-12-20T09:37:26;13.70;;;3.67;;
9372;SDS011;10838;52.350;9.790;2023-12-20T09:39:53;15.67;;;3.43;;
9372;SDS011;10838;52.350;9.790;2023-12-20T09:42:21;15.67;;;3.37;;
9372;SDS011;10838;52.350;9.790;2023-12-20T09:44:55;13.63;;;3.37;;
9372;SDS011;10838;52.350;9.790;2023-12-20T09:47:24;12.20;;;4.00;;
9372;SDS011;10838;52.350;9.790;2023-12-20T09:49:53;15.40;;;3.40;;
9372;SDS011;10838;52.350;9.790;2023-12-20T09:52:20;10.60;;;2.90;;
9372;SDS011;10838;52.350;9.790;2023-12-20T09:54:50;16.23;;;4.07;;
9372;SDS011;10838;52.350;9.790;2023-12-20T09:57:20;15.17;;;5.60;;
9372;SDS011;10838;52.350;9.790;2023-12-20T09:59:46;10.83;;;3.80;;
9372;SDS011;10838;52.350;9.790;2023-12-20T10:02:13;23.27;;;8.47;;
9372;SDS011;10838;52.350;9.790;2023-12-20T10:04:41;11.43;;;3.20;;
9372;SDS011;10838;52.350;9.790;2023-12-20T10:07:14;9.80;;;3.10;;
9372;SDS011;10838;52.350;9.790;2023-12-20T10:09:41;9.30;;;2.93;;
9372;SDS011;10838;52.350;9.790;2023-12-20T10:12:08;20.93;;;3.30;;
9372;SDS011;10838;52.350;9.790;2023-12-20T10:14:35;10.17;;;2.77;;
9372;SDS011;10838;52.350;9.790;2023-12-20T10:17:02;12.40;;;3.00;;
9372;SDS011;10838;52.350;9.790;2023-12-20T10:19:29;14.67;;;3.10;;
9372;SDS011;10838;52.350;9.790;2023-12-20T10:21:57;14.63;;;4.03;;
9372;SDS011;10838;52.350;9.790;2023-12-20T10:24:25;10.23;;;2.80;;
9372;SDS011;10838;52.350;9.790;2023-12-20T10:27:00;15.90;;;3.60;;
9372;SDS011;10838;52.350;9.790;2023-12-20T10:29:30;10.13;;;3.07;;
9372;SDS011;10838;52.350;9.790;2023-12-20T10:31:58;15.83;;;3.43;;
9372;SDS011;10838;52.350;9.790;2023-12-20T10:34:24;10.93;;;2.90;;
9372;SDS011;10838;52.350;9.790;2023-12-20T10:36:51;14.80;;;3.33;;
9372;SDS011;10838;52.350;9.790;2023-12-20T10:39:18;14.77;;;3.03;;
9372;SDS011;10838;52.350;9.790;2023-12-20T10:41:46;13.60;;;3.67;;
9372;SDS011;10838;52.350;9.790;2023-12-20T10:44:13;15.97;;;3.40;;
9372;SDS011;10838;52.350;9.790;2023-12-20T10:46:41;10.93;;;3.20;;
9372;SDS011;10838;52.350;9.790;2023-12-20T10:49:14;12.67;;;3.33;;
9372;SDS011;10838;52.350;9.790;2023-12-20T10:51:43;10.73;;;3.07;;
9372;SDS011;10838;52.350;9.790;2023-12-20T10:54:12;10.67;;;3.30;;
9372;SDS011;10838;52.350;9.790;2023-12-20T10:56:38;11.67;;;3.13;;
9372;SDS011;10838;52.350;9.790;2023-12-20T10:59:07;11.67;;;3.33;;
9372;SDS011;10838;52.350;9.790;2023-12-20T11:01:36;8.80;;;2.90;;
9372;SDS011;10838;52.350;9.790;2023-12-20T11:04:06;10.40;;;3.17;;
9372;SDS011;10838;52.350;9.790;2023-12-20T11:06:40;13.03;;;3.10;;
9372;SDS011;10838;52.350;9.790;2023-12-20T11:09:22;12.00;;;3.50;;
9372;SDS011;10838;52.350;9.790;2023-12-20T11:11:57;14.37;;;4.33;;
9372;SDS011;10838;52.350;9.790;2023-12-20T11:14:33;11.03;;;3.50;;
9372;SDS011;10838;52.350;9.790;2023-12-20T11:17:05;8.70;;;2.40;;
9372;SDS011;10838;52.350;9.790;2023-12-20T11:19:32;8.43;;;2.93;;
9372;SDS011;10838;52.350;9.790;2023-12-20T11:22:02;6.23;;;3.00;;
9372;SDS011;10838;52.350;9.790;2023-12-20T11:24:30;6.97;;;2.50;;
9372;SDS011;10838;52.350;9.790;2023-12-20T11:26:59;8.27;;;2.83;;
9372;SDS011;10838;52.350;9.790;2023-12-20T11:29:29;11.23;;;3.33;;
9372;SDS011;10838;52.350;9.790;2023-12-20T11:31:57;11.17;;;4.00;;
9372;SDS011;10838;52.350;9.790;2023-12-20T11:34:26;10.07;;;3.50;;
9372;SDS011;10838;52.350;9.790;2023-12-20T11:36:56;7.60;;;2.60;;
9372;SDS011;10838;52.350;9.790;2023-12-20T11:39:23;14.03;;;3.07;;
9372;SDS011;10838;52.350;9.790;2023-12-20T11:41:53;16.33;;;3.60;;
9372;SDS011;10838;52.350;9.790;2023-12-20T11:44:21;9.50;;;3.37;;
9372;SDS011;10838;52.350;9.790;2023-12-20T11:46:47;6.23;;;2.60;;
9372;SDS011;10838;52.350;9.790;2023-12-20T11:49:16;10.03;;;2.87;;
9372;SDS011;10838;52.350;9.790;2023-12-20T11:51:42;9.90;;;2.97;;
9372;SDS011;10838;52.350;9.790;2023-12-20T11:54:10;9.70;;;2.90;;
9372;SDS011;10838;52.350;9.790;2023-12-20T11:56:37;7.40;;;2.20;;
9372;SDS011;10838;52.350;9.790;2023-12-20T11:59:03;5.57;;;1.80;;
9372;SDS011;10838;52.350;9.790;2023-12-20T12:01:31;3.20;;;1.30;;
9372;SDS011;10838;52.350;9.790;2023-12-20T12:04:03;5.23;;;1.77;;
9372;SDS011;10838;52.350;9.790;2023-12-20T12:06:32;1.70;;;1.23;;
9372;SDS011;10838;52.350;9.790;2023-12-20T12:08:58;2.20;;;1.53;;
9372;SDS011;10838;52.350;9.790;2023-12-20T12:11:25;3.13;;;2.00;;
9372;SDS011;10838;52.350;9.790;2023-12-20T12:13:51;3.20;;;1.33;;
9372;SDS011;10838;52.350;9.790;2023-12-20T12:16:19;4.00;;;1.20;;
9372;SDS011;10838;52.350;9.790;2023-12-20T12:18:46;1.30;;;1.00;;
9372;SDS011;10838;52.350;9.790;2023-12-20T12:21:20;3.17;;;1.17;;
9372;SDS011;10838;52.350;9.790;2023-12-20T12:23:47;2.80;;;0.90;;
9372;SDS011;10838;52.350;9.790;2023-12-20T12:26:14;5.93;;;1.10;;
9372;SDS011;10838;52.350;9.790;2023-12-20T12:28:40;1.37;;;0.70;;
9372;SDS011;10838;52.350;9.790;2023-12-20T12:31:07;1.60;;;1.20;;
9372;SDS011;10838;52.350;9.790;2023-12-20T12:33:35;1.50;;;1.00;;
9372;SDS011;10838;52.350;9.790;2023-12-20T12:36:01;2.63;;;1.23;;
9372;SDS011;10838;52.350;9.790;2023-12-20T12:38:30;6.70;;;2.20;;
9372;SDS011;10838;52.350;9.790;2023-12-20T12:40:58;7.27;;;1.10;;
9372;SDS011;10838;52.350;9.790;2023-12-20T12:43:25;5.97;;;1.57;;
9372;SDS011;10838;52.350;9.790;2023-12-20T12:45:52;3.53;;;1.00;;
9372;SDS011;10838;52.350;9.790;2023-12-20T12:48:20;2.27;;;1.00;;
9372;SDS011;10838;52.350;9.790;2023-12-20T12:50:47;3.77;;;1.20;;
9372;SDS011;10838;52.350;9.790;2023-12-20T12:53:16;3.57;;;1.30;;
9372;SDS011;10838;52.350;9.790;2023-12-20T12:55:43;4.20;;;1.03;;
9372;SDS011;10838;52.350;9.790;2023-12-20T12:58:11;5.43;;;1.10;;
9372;SDS011;10838;52.350;9.790;2023-12-20T13:00:37;1.70;;;1.07;;
9372;SDS011;10838;52.350;9.790;2023-12-20T13:03:04;4.17;;;1.00;;
9372;SDS011;10838;52.350;9.790;2023-12-20T13:05:30;4.77;;;1.10;;
9372;SDS011;10838;52.350;9.790;2023-12-20T13:07:57;3.00;;;1.00;;
9372;SDS011;10838;52.350;9.790;2023-12-20T13:10:24;3.27;;;1.10;;
9372;SDS011;10838;52.350;9.790;2023-12-20T13:12:50;2.50;;;1.10;;
9372;SDS011;10838;52.350;9.790;2023-12-20T13:15:18;1.60;;;0.90;;
9372;SDS011;10838;52.350;9.790;2023-12-20T13:17:45;3.00;;;1.10;;
9372;SDS011;10838;52.350;9.790;2023-12-20T13:20:12;5.50;;;1.80;;
9372;SDS011;10838;52.350;9.790;2023-12-20T13:22:38;1.97;;;1.00;;
9372;SDS011;10838;52.350;9.790;2023-12-20T13:25:05;5.43;;;1.77;;
9372;SDS011;10838;52.350;9.790;2023-12-20T13:27:32;3.53;;;1.27;;
9372;SDS011;10838;52.350;9.790;2023-12-20T13:29:59;2.73;;;1.20;;
9372;SDS011;10838;52.350;9.790;2023-12-20T13:32:27;6.70;;;1.37;;
9372;SDS011;10838;52.350;9.790;2023-12-20T13:34:54;4.30;;;1.43;;
9372;SDS011;10838;52.350;9.790;2023-12-20T13:37:20;3.00;;;1.40;;
9372;SDS011;10838;52.350;9.790;2023-12-20T13:39:47;4.93;;;1.27;;
9372;SDS011;10838;52.350;9.790;2023-12-20T13:42:13;5.97;;;1.13;;
9372;SDS011;10838;52.350;9.790;2023-12-20T13:44:40;3.83;;;1.20;;
9372;SDS011;10838;52.350;9.790;2023-12-20T13:47:07;3.83;;;0.77;;
9372;SDS011;10838;52.350;9.790;2023-12-20T13:49:35;4.80;;;1.43;;
9372;SDS011;10838;52.350;9.790;2023-12-20T13:52:01;6.43;;;1.37;;
9372;SDS011;10838;52.350;9.790;2023-12-20T13:54:29;3.27;;;1.40;;
9372;SDS011;10838;52.350;9.790;2023-12-20T13:56:55;4.77;;;1.53;;
9372;SDS011;10838;52.350;9.790;2023-12-20T13:59:23;2.50;;;1.33;;
9372;SDS011;10838;52.350;9.790;2023-12-20T14:01:49;3.40;;;1.40;;
9372;SDS011;10838;52.350;9.790;2023-12-20T14:04:16;5.27;;;1.53;;
9372;SDS011;10838;52.350;9.790;2023-12-20T14:06:44;6.00;;;1.50;;
9372;SDS011;10838;52.350;9.790;2023-12-20T14:09:10;1.43;;;1.03;;
9372;SDS011;10838;52.350;9.790;2023-12-20T14:11:37;4.77;;;1.77;;
9372;SDS011;10838;52.350;9.790;2023-12-20T14:14:06;6.27;;;1.53;;
9372;SDS011;10838;52.350;9.790;2023-12-20T14:16:32;6.77;;;1.77;;
9372;SDS011;10838;52.350;9.790;2023-12-20T14:18:59;5.90;;;1.53;;
9372;SDS011;10838;52.350;9.790;2023-12-20T14:21:28;7.17;;;1.70;;
9372;SDS011;10838;52.350;9.790;2023-12-20T14:23:55;15.93;;;7.00;;
9372;SDS011;10838;52.350;9.790;2023-12-20T14:26:22;5.50;;;1.30;;
9372;SDS011;10838;52.350;9.790;2023-12-20T14:28:48;5.80;;;1.40;;
9372;SDS011;10838;52.350;9.790;2023-12-20T14:31:15;4.07;;;1.50;;
9372;SDS011;10838;52.350;9.790;2023-12-20T14:33:41;3.63;;;1.50;;
9372;SDS011;10838;52.350;9.790;2023-12-20T14:36:08;5.47;;;1.80;;
9372;SDS011;10838;52.350;9.790;2023-12-20T14:38:35;5.33;;;1.37;;
9372;SDS011;10838;52.350;9.790;2023-12-20T14:41:03;7.23;;;1.80;;
9372;SDS011;10838;52.350;9.790;2023-12-20T14:43:31;6.43;;;1.63;;
9372;SDS011;10838;52.350;9.790;2023-12-20T14:45:57;5.87;;;1.70;;
9372;SDS011;10838;52.350;9.790;2023-12-20T14:48:24;5.63;;;1.47;;
9372;SDS011;10838;52.350;9.790;2023-12-20T14:50:52;4.83;;;1.57;;
9372;SDS011;10838;52.350;9.790;2023-12-20T14:53:19;5.27;;;2.07;;